Time;durP1;ratioP1;P1;durP2;ratioP2;P2;SDS_P1;SDS_P2;PMS_P1;PMS_P2;Temp;Humidity;BMP_temperature;BMP_pressure;BME280_temperature;BME280_humidity;BME280_pressure;Samples;Min_cycle;Max_cycle;Signal;HPM_P1;HPM_P2
2023/10/30 00:02:10;;;;;;;1.93;1.10;;;14.70;99.90;;;;;;4990828;28;20189;-75
2023/10/30 00:04:36;;;;;;;4.03;1.30;;;14.60;99.90;;;;;;5016632;28;20193;-75
2023/10/30 00:07:02;;;;;;;3.13;1.30;;;14.60;99.90;;;;;;4989431;28;20186;-75
2023/10/30 00:09:28;;;;;;;1.70;1.03;;;14.60;99.90;;;;;;4982147;28;20970;-75
2023/10/30 00:11:54;;;;;;;3.70;1.23;;;14.60;99.90;;;;;;4992784;28;20198;-74
2023/10/30 00:14:20;;;;;;;6.60;1.60;;;14.50;99.90;;;;;;4999478;28;20835;-74
2023/10/30 00:16:45;;;;;;;2.27;1.30;;;14.60;99.90;;;;;;4993284;28;20458;-76
2023/10/30 00:19:11;;;;;;;2.27;1.20;;;14.60;99.90;;;;;;4992614;28;20734;-75
2023/10/30 00:21:37;;;;;;;3.03;1.30;;;14.50;99.90;;;;;;4991729;28;20208;-75
2023/10/30 00:24:03;;;;;;;3.20;1.20;;;14.50;99.90;;;;;;4986074;28;20189;-74
2023/10/30 00:26:29;;;;;;;3.17;1.30;;;14.50;99.90;;;;;;4988846;28;20221;-75
2023/10/30 00:28:57;;;;;;;3.30;1.40;;;14.50;99.90;;;;;;4991458;28;20432;-74
2023/10/30 00:31:23;;;;;;;3.03;1.40;;;14.50;99.90;;;;;;4992803;28;20550;-75
2023/10/30 00:33:49;;;;;;;4.20;1.37;;;14.60;99.90;;;;;;4996353;28;20522;-74
2023/10/30 00:36:14;;;;;;;4.33;1.30;;;14.50;99.90;;;;;;4994729;28;20224;-74
2023/10/30 00:38:40;;;;;;;2.30;1.23;;;14.40;99.90;;;;;;5004806;28;20412;-74
2023/10/30 00:41:08;;;;;;;2.10;1.13;;;14.30;99.90;;;;;;4991300;28;20819;-74
2023/10/30 00:43:34;;;;;;;5.53;1.30;;;14.30;99.90;;;;;;4999380;28;20259;-74
2023/10/30 00:45:59;;;;;;;3.80;1.30;;;14.40;99.90;;;;;;4997300;28;20416;-75
2023/10/30 00:48:25;;;;;;;5.20;1.60;;;14.30;99.90;;;;;;4996548;28;20212;-75
2023/10/30 00:50:51;;;;;;;3.33;1.30;;;14.30;99.90;;;;;;5014701;28;20586;-75
2023/10/30 00:53:16;;;;;;;4.57;1.60;;;14.40;99.90;;;;;;5003435;28;20173;-76
2023/10/30 00:55:42;;;;;;;2.90;1.33;;;14.30;99.90;;;;;;5000440;28;20181;-75
2023/10/30 00:58:07;;;;;;;5.80;1.50;;;14.20;99.90;;;;;;4995624;28;20626;-75
2023/10/30 01:00:34;;;;;;;7.37;2.13;;;14.20;99.90;;;;;;5018764;28;20290;-75
2023/10/30 01:03:00;;;;;;;5.50;1.90;;;14.30;99.90;;;;;;4993929;28;20318;-76
2023/10/30 01:05:25;;;;;;;7.83;1.50;;;14.20;99.90;;;;;;4998365;28;20423;-77
2023/10/30 01:07:51;;;;;;;2.87;1.60;;;14.20;99.90;;;;;;4993285;28;20177;-76
2023/10/30 01:10:17;;;;;;;4.33;1.50;;;14.20;99.90;;;;;;4993897;28;20724;-76
2023/10/30 01:12:43;;;;;;;4.07;1.53;;;14.30;99.90;;;;;;4997607;28;20182;-76
2023/10/30 01:15:09;;;;;;;2.67;1.37;;;14.30;99.90;;;;;;4998410;28;20481;-76
2023/10/30 01:17:34;;;;;;;4.13;1.40;;;14.30;99.90;;;;;;4996448;28;20213;-75
2023/10/30 01:20:03;;;;;;;4.67;1.40;;;14.20;99.90;;;;;;4999117;28;20470;-75
2023/10/30 01:22:29;;;;;;;5.60;1.60;;;14.30;99.90;;;;;;4995575;28;20205;-75
2023/10/30 01:24:55;;;;;;;6.20;1.90;;;14.20;99.90;;;;;;4992588;28;20567;-75
2023/10/30 01:27:20;;;;;;;6.07;1.70;;;14.30;99.90;;;;;;5000158;28;20188;-76
2023/10/30 01:29:46;;;;;;;2.83;1.60;;;14.20;99.90;;;;;;4995798;28;20192;-76
2023/10/30 01:32:12;;;;;;;7.23;2.10;;;14.30;99.90;;;;;;4987722;28;20291;-75
2023/10/30 01:34:37;;;;;;;3.83;2.23;;;14.30;99.90;;;;;;4994037;28;20185;-75
2023/10/30 01:37:03;;;;;;;5.97;1.47;;;14.30;99.90;;;;;;5002006;28;20177;-75
2023/10/30 01:39:28;;;;;;;4.50;1.50;;;14.30;99.90;;;;;;4994793;28;20178;-78
2023/10/30 01:41:54;;;;;;;3.17;1.60;;;14.40;99.90;;;;;;5003187;28;20201;-75
2023/10/30 01:44:20;;;;;;;3.50;1.40;;;14.40;99.90;;;;;;4997907;28;20185;-78
2023/10/30 01:46:46;;;;;;;2.50;1.40;;;14.40;99.90;;;;;;5004873;28;20452;-77
2023/10/30 01:49:11;;;;;;;5.13;1.50;;;14.50;99.90;;;;;;5001644;28;20201;-77
2023/10/30 01:51:37;;;;;;;3.00;1.40;;;14.50;99.90;;;;;;4999221;28;20925;-77
2023/10/30 01:54:04;;;;;;;4.37;1.40;;;14.50;99.90;;;;;;4994548;28;20436;-77
2023/10/30 01:56:32;;;;;;;3.80;1.50;;;14.50;99.90;;;;;;4997106;28;20173;-77
2023/10/30 01:58:58;;;;;;;2.73;1.10;;;14.50;99.90;;;;;;5000475;28;20420;-77
2023/10/30 02:01:24;;;;;;;3.53;1.30;;;14.50;99.90;;;;;;4996791;28;20476;-77
2023/10/30 02:03:52;;;;;;;6.97;1.40;;;14.50;99.90;;;;;;4996269;28;20893;-77
2023/10/30 02:06:17;;;;;;;5.67;1.53;;;14.50;99.90;;;;;;5000311;28;20464;-77
2023/10/30 02:08:43;;;;;;;5.57;1.20;;;14.50;99.90;;;;;;5000548;28;20868;-78
2023/10/30 02:11:09;;;;;;;4.40;1.27;;;14.50;99.90;;;;;;4999944;28;20213;-77
2023/10/30 02:13:35;;;;;;;2.80;1.30;;;14.50;99.90;;;;;;5009077;28;20424;-77
2023/10/30 02:16:00;;;;;;;3.73;1.20;;;14.50;99.90;;;;;;5006484;28;20173;-78
2023/10/30 02:18:26;;;;;;;7.30;1.30;;;14.50;99.90;;;;;;4999576;28;20185;-77
2023/10/30 02:20:52;;;;;;;2.57;1.23;;;14.50;99.90;;;;;;4999043;28;20213;-77
2023/10/30 02:23:18;;;;;;;2.73;1.20;;;14.40;99.90;;;;;;5010268;28;20249;-77
2023/10/30 02:25:43;;;;;;;3.10;1.27;;;14.40;99.90;;;;;;4996523;28;20251;-78
2023/10/30 02:28:09;;;;;;;3.87;1.30;;;14.30;99.90;;;;;;4997304;28;20189;-79
2023/10/30 02:30:34;;;;;;;5.10;1.20;;;14.40;99.90;;;;;;5007872;28;20217;-79
2023/10/30 02:33:00;;;;;;;2.07;1.10;;;14.40;99.90;;;;;;5002022;28;20260;-79
2023/10/30 02:35:26;;;;;;;2.53;1.37;;;14.30;99.90;;;;;;5003882;28;20189;-79
2023/10/30 02:37:51;;;;;;;2.10;1.30;;;14.30;99.90;;;;;;4996960;28;20214;-78
2023/10/30 02:40:17;;;;;;;3.07;1.60;;;14.30;99.90;;;;;;4999918;28;20621;-79
2023/10/30 02:42:43;;;;;;;5.20;1.90;;;14.30;99.90;;;;;;5001480;28;20185;-79
2023/10/30 02:45:09;;;;;;;6.00;1.50;;;14.20;99.90;;;;;;5000875;28;20432;-78
2023/10/30 02:47:34;;;;;;;2.67;1.50;;;14.30;99.90;;;;;;5001913;28;20676;-77
2023/10/30 02:50:01;;;;;;;2.73;1.63;;;14.30;99.90;;;;;;5002658;28;20299;-77
2023/10/30 02:52:28;;;;;;;2.83;1.30;;;14.30;99.90;;;;;;4997351;28;20651;-77
2023/10/30 02:54:54;;;;;;;3.10;1.60;;;14.30;99.90;;;;;;5000129;28;20427;-77
2023/10/30 02:57:20;;;;;;;2.87;1.77;;;14.30;99.90;;;;;;5016809;28;20431;-77
2023/10/30 02:59:45;;;;;;;6.10;2.20;;;14.30;99.90;;;;;;4998289;28;20252;-76
2023/10/30 03:02:11;;;;;;;5.93;1.90;;;14.30;99.90;;;;;;4992324;28;20252;-77
2023/10/30 03:04:37;;;;;;;4.57;1.67;;;14.40;99.90;;;;;;4998183;28;20193;-76
2023/10/30 03:07:02;;;;;;;3.67;1.50;;;14.40;99.90;;;;;;5000192;28;20177;-76
2023/10/30 03:09:34;;;;;;;2.73;1.50;;;14.40;99.90;;;;;;4997665;28;20185;-77
2023/10/30 03:12:00;;;;;;;3.10;1.80;;;14.40;99.90;;;;;;4988886;28;20227;-76
2023/10/30 03:14:26;;;;;;;2.30;1.30;;;14.40;99.90;;;;;;4990152;28;21104;-77
2023/10/30 03:16:51;;;;;;;4.53;1.60;;;14.40;99.90;;;;;;4997832;28;20228;-77
2023/10/30 03:19:18;;;;;;;3.00;1.37;;;14.30;99.90;;;;;;4993757;28;20219;-77
2023/10/30 03:21:43;;;;;;;5.70;1.53;;;14.40;99.90;;;;;;4993141;28;20797;-77
2023/10/30 03:24:09;;;;;;;3.13;1.40;;;14.40;99.90;;;;;;4985241;28;20440;-77
2023/10/30 03:26:35;;;;;;;7.93;2.67;;;14.30;99.90;;;;;;4992431;28;20243;-77
2023/10/30 03:29:00;;;;;;;4.50;1.80;;;14.30;99.90;;;;;;4995815;28;20269;-76
2023/10/30 03:31:26;;;;;;;5.07;1.60;;;14.30;99.90;;;;;;4993832;28;20303;-78
2023/10/30 03:33:52;;;;;;;2.97;1.33;;;14.30;99.90;;;;;;4991613;28;20751;-77
2023/10/30 03:36:19;;;;;;;6.10;1.80;;;14.30;99.90;;;;;;5004889;28;20204;-77
2023/10/30 03:38:45;;;;;;;5.97;1.47;;;14.30;99.90;;;;;;4996838;28;20170;-78
2023/10/30 03:41:10;;;;;;;4.83;1.40;;;14.30;99.90;;;;;;4997891;28;20451;-78
2023/10/30 03:43:36;;;;;;;3.40;1.67;;;14.30;99.90;;;;;;5010833;28;20176;-78
2023/10/30 03:46:02;;;;;;;3.60;1.40;;;14.30;99.90;;;;;;5008058;28;20177;-78
2023/10/30 03:48:27;;;;;;;3.47;1.40;;;14.30;99.90;;;;;;5002347;28;20969;-78
2023/10/30 03:50:53;;;;;;;4.43;1.93;;;14.30;99.90;;;;;;4999487;28;20520;-80
2023/10/30 03:53:21;;;;;;;5.90;1.40;;;14.30;99.90;;;;;;5000653;28;20640;-78
2023/10/30 03:55:46;;;;;;;2.83;1.40;;;14.30;99.90;;;;;;4995415;28;20205;-77
2023/10/30 03:58:12;;;;;;;3.43;1.30;;;14.30;99.90;;;;;;5001518;28;20951;-78
2023/10/30 04:00:41;;;;;;;4.33;1.60;;;14.30;99.90;;;;;;4997207;28;20232;-77
2023/10/30 04:03:07;;;;;;;4.00;1.23;;;14.30;99.90;;;;;;5002975;28;20669;-79
2023/10/30 04:05:33;;;;;;;2.57;1.27;;;14.30;99.90;;;;;;5006347;28;21015;-78
2023/10/30 04:07:58;;;;;;;3.87;1.67;;;14.30;99.90;;;;;;5003669;28;20420;-78
2023/10/30 04:10:24;;;;;;;2.70;1.30;;;14.30;99.90;;;;;;5006248;28;20280;-78
2023/10/30 04:12:50;;;;;;;2.03;1.40;;;14.30;99.90;;;;;;5004526;28;20264;-79
2023/10/30 04:15:17;;;;;;;4.93;1.30;;;14.20;99.90;;;;;;5003813;28;20517;-78
2023/10/30 04:17:44;;;;;;;4.37;1.40;;;14.30;99.90;;;;;;5004442;28;20201;-77
2023/10/30 04:20:10;;;;;;;2.40;1.50;;;14.20;99.90;;;;;;5004309;28;20547;-78
2023/10/30 04:22:35;;;;;;;4.20;1.53;;;14.20;99.90;;;;;;5002253;28;21015;-77
2023/10/30 04:25:02;;;;;;;5.67;1.30;;;14.20;99.90;;;;;;5006478;28;20510;-77
2023/10/30 04:27:27;;;;;;;3.40;1.40;;;14.20;99.90;;;;;;5004080;28;20190;-78
2023/10/30 04:29:53;;;;;;;2.30;1.40;;;14.10;99.90;;;;;;5006193;28;20904;-78
2023/10/30 04:32:19;;;;;;;3.70;1.50;;;14.20;99.90;;;;;;4998640;28;20199;-78
2023/10/30 04:34:44;;;;;;;2.80;1.30;;;14.20;99.90;;;;;;4995910;28;20186;-77
2023/10/30 04:37:10;;;;;;;4.47;1.40;;;14.20;99.90;;;;;;4998236;28;20229;-77
2023/10/30 04:39:35;;;;;;;2.60;1.27;;;14.30;99.90;;;;;;4992539;28;20269;-76
2023/10/30 04:42:01;;;;;;;2.20;1.50;;;14.20;99.90;;;;;;4997229;28;20759;-77
2023/10/30 04:44:27;;;;;;;2.73;1.93;;;14.20;99.90;;;;;;5001967;28;20212;-77
2023/10/30 04:46:52;;;;;;;2.73;1.40;;;14.30;99.90;;;;;;5000435;28;20187;-77
2023/10/30 04:49:18;;;;;;;5.33;1.60;;;14.30;99.90;;;;;;5001393;28;20191;-76
2023/10/30 04:51:44;;;;;;;2.00;1.43;;;14.20;99.90;;;;;;4996291;28;20754;-77
2023/10/30 04:54:09;;;;;;;3.03;1.40;;;14.20;99.90;;;;;;5003478;28;20177;-78
2023/10/30 04:56:35;;;;;;;2.37;1.20;;;14.30;99.90;;;;;;4999824;28;20351;-78
2023/10/30 04:59:01;;;;;;;2.93;1.20;;;14.20;99.90;;;;;;5002023;28;20263;-78
2023/10/30 05:01:26;;;;;;;2.03;1.23;;;14.20;99.90;;;;;;4998044;28;20304;-78
2023/10/30 05:03:52;;;;;;;3.30;1.30;;;14.20;99.90;;;;;;5008713;28;20193;-78
2023/10/30 05:06:17;;;;;;;3.20;1.47;;;14.30;99.90;;;;;;5003485;28;20203;-78
2023/10/30 05:08:44;;;;;;;2.33;1.40;;;14.30;99.90;;;;;;5004223;28;20212;-78
2023/10/30 05:11:10;;;;;;;4.77;1.50;;;14.20;99.90;;;;;;4999593;28;20216;-79
2023/10/30 05:13:35;;;;;;;2.30;1.50;;;14.30;99.90;;;;;;5004710;28;20995;-77
2023/10/30 05:16:01;;;;;;;2.77;1.70;;;14.20;99.90;;;;;;4998512;28;20268;-78
2023/10/30 05:18:30;;;;;;;2.30;1.40;;;14.20;99.90;;;;;;5005023;28;20244;-78
2023/10/30 05:20:55;;;;;;;2.37;1.27;;;14.20;99.90;;;;;;5001500;28;20263;-78
2023/10/30 05:23:21;;;;;;;1.70;1.10;;;14.20;99.90;;;;;;5006978;28;20427;-78
2023/10/30 05:25:47;;;;;;;1.93;1.30;;;14.20;99.90;;;;;;4999650;28;20185;-78
2023/10/30 05:28:12;;;;;;;2.27;1.40;;;14.20;99.90;;;;;;4998289;28;20613;-78
2023/10/30 05:30:38;;;;;;;4.90;1.23;;;14.30;99.90;;;;;;5004747;28;20219;-79
2023/10/30 05:33:04;;;;;;;3.37;1.40;;;14.20;99.90;;;;;;5011343;28;20693;-79
2023/10/30 05:35:30;;;;;;;4.20;1.60;;;14.20;99.90;;;;;;5009476;28;20412;-79
2023/10/30 05:37:56;;;;;;;3.27;1.47;;;14.30;99.90;;;;;;5007465;28;20305;-79
2023/10/30 05:40:22;;;;;;;3.80;1.17;;;14.30;99.90;;;;;;5003877;28;20673;-77
2023/10/30 05:42:48;;;;;;;3.10;1.77;;;14.30;99.90;;;;;;4998932;28;20440;-77
2023/10/30 05:45:14;;;;;;;1.87;1.27;;;14.30;99.90;;;;;;4999155;28;20190;-77
2023/10/30 05:47:39;;;;;;;2.40;1.30;;;14.30;99.90;;;;;;5002814;28;20201;-77
2023/10/30 05:50:06;;;;;;;2.33;1.43;;;14.30;99.90;;;;;;5000856;28;20368;-77
2023/10/30 05:52:32;;;;;;;2.20;1.63;;;14.30;99.90;;;;;;4997125;28;20956;-77
2023/10/30 05:54:57;;;;;;;2.20;1.60;;;14.30;99.90;;;;;;4998575;28;20437;-79
2023/10/30 05:57:23;;;;;;;2.30;1.70;;;14.30;99.90;;;;;;4998494;28;20216;-79
2023/10/30 05:59:49;;;;;;;2.30;1.67;;;14.40;99.90;;;;;;4999762;28;20634;-79
2023/10/30 06:02:15;;;;;;;2.60;1.57;;;14.40;99.90;;;;;;5002561;28;20698;-80
2023/10/30 06:04:41;;;;;;;5.33;2.13;;;14.40;99.90;;;;;;4997120;28;20195;-79
2023/10/30 06:07:07;;;;;;;2.27;1.67;;;14.40;99.90;;;;;;5005724;28;20416;-78
2023/10/30 06:09:33;;;;;;;2.20;1.50;;;14.40;99.90;;;;;;5001555;28;20437;-78
2023/10/30 06:11:58;;;;;;;3.60;1.70;;;14.40;99.90;;;;;;5012266;28;20493;-79
2023/10/30 06:14:24;;;;;;;2.87;1.80;;;14.40;99.90;;;;;;4998391;28;20680;-79
2023/10/30 06:16:50;;;;;;;3.50;2.23;;;14.40;99.90;;;;;;5008148;28;20178;-79
2023/10/30 06:19:16;;;;;;;8.87;2.13;;;14.40;99.90;;;;;;5004868;28;20444;-79
2023/10/30 06:21:45;;;;;;;3.83;1.80;;;14.40;99.90;;;;;;5012827;28;20688;-78
2023/10/30 06:24:11;;;;;;;3.57;2.00;;;14.50;99.90;;;;;;5013570;28;20170;-79
2023/10/30 06:26:42;;;;;;;3.27;2.00;;;14.50;99.90;;;;;;5015492;28;20429;-79
2023/10/30 06:29:09;;;;;;;2.73;1.80;;;14.50;99.90;;;;;;5015643;28;20402;-81
2023/10/30 06:31:35;;;;;;;3.37;2.23;;;14.50;99.90;;;;;;5033318;28;20466;-81
2023/10/30 06:34:01;;;;;;;4.00;2.00;;;14.50;99.90;;;;;;5028270;28;20459;-80
2023/10/30 06:36:27;;;;;;;3.57;2.20;;;14.50;99.90;;;;;;5021742;28;20442;-80
2023/10/30 06:38:55;;;;;;;2.57;1.97;;;14.50;99.90;;;;;;5022673;28;20482;-80
2023/10/30 06:41:20;;;;;;;2.50;1.60;;;14.60;99.90;;;;;;5016791;28;20224;-81
2023/10/30 06:43:46;;;;;;;3.27;2.00;;;14.60;99.90;;;;;;5019900;28;20463;-82
2023/10/30 06:46:12;;;;;;;3.80;1.90;;;14.60;99.90;;;;;;5009732;28;20244;-81
2023/10/30 06:48:37;;;;;;;2.37;1.93;;;14.70;99.90;;;;;;5007776;28;20195;-79
2023/10/30 06:51:03;;;;;;;2.77;1.80;;;14.70;99.90;;;;;;5001344;28;20237;-79
2023/10/30 06:53:29;;;;;;;4.63;2.10;;;14.80;99.90;;;;;;5000613;28;20181;-80
2023/10/30 06:55:54;;;;;;;5.80;2.33;;;14.80;99.90;;;;;;5007052;28;20524;-80
2023/10/30 06:58:23;;;;;;;2.80;2.30;;;14.90;99.90;;;;;;5001555;28;20263;-79
2023/10/30 07:00:49;;;;;;;5.00;1.90;;;14.90;99.90;;;;;;5003683;28;20288;-80
2023/10/30 07:03:15;;;;;;;3.10;2.43;;;14.90;99.90;;;;;;5005035;28;20517;-79
2023/10/30 07:05:42;;;;;;;8.40;2.43;;;14.90;99.90;;;;;;5002359;28;20931;-79
2023/10/30 07:08:08;;;;;;;3.20;2.00;;;14.90;99.90;;;;;;4995020;28;20188;-79
2023/10/30 07:10:33;;;;;;;4.23;2.03;;;14.90;99.90;;;;;;4999022;28;20699;-81
2023/10/30 07:12:59;;;;;;;6.53;2.10;;;15.00;99.90;;;;;;4999837;28;20558;-82
2023/10/30 07:15:26;;;;;;;3.27;2.00;;;15.00;99.90;;;;;;5006278;28;20178;-79
2023/10/30 07:17:55;;;;;;;7.47;2.07;;;15.10;99.90;;;;;;5001155;28;20191;-78
2023/10/30 07:20:20;;;;;;;3.87;1.90;;;15.10;99.90;;;;;;5000184;28;20451;-80
2023/10/30 07:22:46;;;;;;;2.87;1.80;;;15.20;99.90;;;;;;5016036;28;20455;-79
2023/10/30 07:25:12;;;;;;;4.47;1.80;;;15.20;99.90;;;;;;5005313;28;20217;-78
2023/10/30 07:27:37;;;;;;;16.07;11.60;;;15.20;99.90;;;;;;4991519;28;20787;-78
2023/10/30 07:30:03;;;;;;;4.13;2.23;;;15.20;99.90;;;;;;4990167;28;20593;-80
2023/10/30 07:32:29;;;;;;;7.13;2.47;;;15.20;99.90;;;;;;4996354;28;20265;-78
2023/10/30 07:34:55;;;;;;;4.23;2.23;;;15.20;99.90;;;;;;5005124;28;20653;-77
2023/10/30 07:37:20;;;;;;;2.50;1.90;;;15.20;99.90;;;;;;5005833;28;20568;-78
2023/10/30 07:39:46;;;;;;;2.33;1.53;;;15.30;99.90;;;;;;5008141;28;20189;-78
2023/10/30 07:42:12;;;;;;;3.30;1.90;;;15.30;99.90;;;;;;5019218;28;20184;-78
2023/10/30 07:44:37;;;;;;;2.67;1.83;;;15.30;99.90;;;;;;5020903;28;20177;-83
2023/10/30 07:47:04;;;;;;;2.37;1.73;;;15.40;99.90;;;;;;4998599;28;20648;-84
2023/10/30 07:49:29;;;;;;;3.57;1.90;;;15.50;99.90;;;;;;5016669;28;20182;-83
2023/10/30 07:51:55;;;;;;;4.90;1.97;;;15.50;99.90;;;;;;5005273;28;20970;-81
2023/10/30 07:54:22;;;;;;;3.67;2.13;;;15.60;99.90;;;;;;5002852;28;20187;-78
2023/10/30 07:56:48;;;;;;;3.93;2.23;;;15.70;99.90;;;;;;5001058;28;20188;-77
2023/10/30 07:59:14;;;;;;;4.00;2.40;;;15.80;99.90;;;;;;5002724;28;20523;-79
2023/10/30 08:01:40;;;;;;;3.33;2.00;;;15.90;99.90;;;;;;4991703;28;20234;-79
2023/10/30 08:04:09;;;;;;;3.77;2.57;;;15.90;99.90;;;;;;5002474;28;20988;-78
2023/10/30 08:06:35;;;;;;;3.80;2.80;;;16.00;99.90;;;;;;5026142;28;20490;-77
2023/10/30 08:09:01;;;;;;;4.23;1.80;;;16.00;99.90;;;;;;4996576;28;20529;-78
2023/10/30 08:11:27;;;;;;;4.40;1.93;;;16.10;99.90;;;;;;5001936;28;20852;-77
2023/10/30 08:13:53;;;;;;;6.27;2.50;;;16.10;99.90;;;;;;5008726;28;20191;-82
2023/10/30 08:16:18;;;;;;;2.63;1.77;;;16.10;99.90;;;;;;4994271;28;20436;-77
2023/10/30 08:18:44;;;;;;;6.07;3.80;;;16.10;99.90;;;;;;4990666;28;20672;-82
2023/10/30 08:21:09;;;;;;;4.43;3.83;;;16.10;99.90;;;;;;5002516;28;20295;-79
2023/10/30 08:23:37;;;;;;;4.13;3.63;;;16.10;99.90;;;;;;4996407;28;20185;-79
2023/10/30 08:26:06;;;;;;;5.00;2.70;;;16.10;99.90;;;;;;4996831;28;20595;-81
2023/10/30 08:28:32;;;;;;;9.40;6.80;;;16.20;99.90;;;;;;5003924;28;20517;-78
2023/10/30 08:30:57;;;;;;;3.60;2.37;;;16.20;99.90;;;;;;4998873;28;20860;-79
2023/10/30 08:33:23;;;;;;;4.30;2.70;;;16.30;99.90;;;;;;4993063;28;20658;-76
2023/10/30 08:35:49;;;;;;;5.60;2.83;;;16.30;99.90;;;;;;5000891;28;20184;-77
2023/10/30 08:38:14;;;;;;;7.43;2.43;;;16.40;99.90;;;;;;4994703;28;20204;-80
2023/10/30 08:40:40;;;;;;;3.30;2.43;;;16.30;99.90;;;;;;5003362;28;20561;-77
2023/10/30 08:43:06;;;;;;;4.97;2.97;;;16.30;99.90;;;;;;5014233;28;20189;-75
2023/10/30 08:45:31;;;;;;;4.80;2.40;;;16.30;99.90;;;;;;5008832;28;21002;-77
2023/10/30 08:47:57;;;;;;;8.83;2.70;;;16.30;99.90;;;;;;5006885;28;20203;-75
2023/10/30 08:50:22;;;;;;;2.90;2.10;;;16.30;99.90;;;;;;4992203;28;20224;-75
2023/10/30 08:52:48;;;;;;;4.37;2.67;;;16.30;99.90;;;;;;4995682;28;20285;-75
2023/10/30 08:55:14;;;;;;;4.03;2.90;;;16.30;99.90;;;;;;4990889;28;20189;-75
2023/10/30 08:57:40;;;;;;;4.10;3.10;;;16.30;99.90;;;;;;5003067;28;20243;-74
2023/10/30 09:00:07;;;;;;;6.23;3.63;;;16.30;99.90;;;;;;4989861;28;20210;-77
2023/10/30 09:02:33;;;;;;;3.90;3.00;;;16.30;99.90;;;;;;4995041;28;20202;-77
2023/10/30 09:04:59;;;;;;;5.37;3.33;;;16.30;99.90;;;;;;4999364;28;21273;-77
2023/10/30 09:07:27;;;;;;;4.20;3.37;;;16.30;99.90;;;;;;4995510;28;20466;-77
2023/10/30 09:09:53;;;;;;;5.53;3.23;;;16.40;99.90;;;;;;5000401;28;20184;-77
2023/10/30 09:12:18;;;;;;;5.07;3.10;;;16.40;99.90;;;;;;4989897;28;21318;-78
2023/10/30 09:14:44;;;;;;;4.13;3.40;;;16.50;99.90;;;;;;4997721;28;20190;-78
2023/10/30 09:17:10;;;;;;;5.17;3.33;;;16.50;99.90;;;;;;4991899;28;20197;-77
2023/10/30 09:19:36;;;;;;;4.00;3.30;;;16.60;99.90;;;;;;4996912;28;20639;-77
2023/10/30 09:22:02;;;;;;;6.33;5.00;;;16.60;99.90;;;;;;4993136;28;20233;-76
2023/10/30 09:24:31;;;;;;;5.67;3.37;;;16.70;99.90;;;;;;4990831;28;20504;-77
2023/10/30 09:26:56;;;;;;;7.10;3.63;;;16.70;99.90;;;;;;4993097;28;20487;-76
2023/10/30 09:29:24;;;;;;;4.00;3.50;;;16.80;99.90;;;;;;4994146;28;20439;-77
2023/10/30 09:31:49;;;;;;;5.43;4.33;;;16.90;99.90;;;;;;4994344;28;20296;-77
2023/10/30 09:34:16;;;;;;;4.70;3.60;;;17.10;99.90;;;;;;4997014;28;20540;-78
2023/10/30 09:36:42;;;;;;;6.30;3.40;;;17.20;99.90;;;;;;5025748;28;20628;-77
2023/10/30 09:39:07;;;;;;;5.03;3.53;;;17.40;99.90;;;;;;4995519;28;20511;-77
2023/10/30 09:41:40;;;;;;;4.53;3.00;;;17.50;99.90;;;;;;4998772;28;20689;-77
2023/10/30 09:44:09;;;;;;;4.70;3.10;;;17.60;99.90;;;;;;4992187;28;20887;-76
2023/10/30 09:46:37;;;;;;;6.80;4.70;;;17.70;99.90;;;;;;4995957;28;20500;-76
2023/10/30 09:49:04;;;;;;;6.70;4.13;;;17.80;99.90;;;;;;5001168;28;20463;-76
2023/10/30 09:51:30;;;;;;;6.63;3.10;;;17.80;99.90;;;;;;4993148;28;20512;-76
2023/10/30 09:53:58;;;;;;;8.40;5.47;;;17.90;99.90;;;;;;4990358;28;20468;-76
2023/10/30 09:56:26;;;;;;;6.50;3.77;;;17.90;99.90;;;;;;4995954;28;20196;-76
2023/10/30 09:58:52;;;;;;;4.00;3.37;;;18.00;99.90;;;;;;5001807;28;20486;-77
2023/10/30 10:01:20;;;;;;;5.40;3.67;;;18.00;99.90;;;;;;4998441;28;20925;-77
2023/10/30 10:03:46;;;;;;;4.17;3.07;;;18.00;99.90;;;;;;4993522;28;20526;-77
2023/10/30 10:06:12;;;;;;;4.37;3.63;;;18.00;99.90;;;;;;4998679;28;20947;-78
2023/10/30 10:08:41;;;;;;;6.00;3.27;;;18.00;99.90;;;;;;5002235;28;20929;-77
2023/10/30 10:11:07;;;;;;;6.43;4.10;;;18.00;99.90;;;;;;5000191;28;20216;-72
2023/10/30 10:13:33;;;;;;;7.10;3.60;;;18.10;99.90;;;;;;4997135;28;20454;-72
2023/10/30 10:16:02;;;;;;;7.10;5.03;;;18.20;99.90;;;;;;4993890;28;20176;-72
2023/10/30 10:18:30;;;;;;;4.80;4.00;;;18.40;99.90;;;;;;5013093;28;20433;-72
2023/10/30 10:20:56;;;;;;;5.87;4.40;;;18.50;99.90;;;;;;4992932;28;20455;-74
2023/10/30 10:23:22;;;;;;;5.73;4.50;;;18.60;99.90;;;;;;4990751;28;20454;-73
2023/10/30 10:25:55;;;;;;;4.10;3.30;;;18.60;99.90;;;;;;4996088;28;20472;-72
2023/10/30 10:28:48;;;;;;;4.70;3.63;;;18.70;99.90;;;;;;4984798;28;20432;-75
2023/10/30 10:31:14;;;;;;;3.90;3.37;;;18.80;99.90;;;;;;4982086;28;20476;-75
2023/10/30 10:33:40;;;;;;;4.10;3.60;;;18.80;99.90;;;;;;4998781;28;20872;-72
2023/10/30 10:36:06;;;;;;;6.30;4.10;;;18.90;99.90;;;;;;4995251;28;20535;-72
2023/10/30 10:38:33;;;;;;;4.63;3.60;;;19.00;99.90;;;;;;4987392;28;20228;-72
2023/10/30 10:40:59;;;;;;;4.60;3.50;;;19.00;99.90;;;;;;4985879;28;20503;-72
2023/10/30 10:43:29;;;;;;;5.40;4.00;;;19.10;99.90;;;;;;4989497;28;20513;-72
2023/10/30 10:45:56;;;;;;;6.70;4.37;;;19.00;99.90;;;;;;4988083;28;20437;-73
2023/10/30 10:48:24;;;;;;;3.90;3.33;;;19.00;99.90;;;;;;4993070;28;20425;-71
2023/10/30 10:50:49;;;;;;;4.30;3.83;;;19.10;99.90;;;;;;4997577;28;20552;-71
2023/10/30 10:53:19;;;;;;;4.70;4.00;;;19.00;99.90;;;;;;4992386;28;20459;-71
2023/10/30 10:55:49;;;;;;;4.30;3.90;;;19.10;99.90;;;;;;4997608;28;20181;-72
2023/10/30 10:58:34;;;;;;;6.17;3.80;;;19.00;99.90;;;;;;4988587;28;20440;-72
2023/10/30 11:01:05;;;;;;;4.43;3.40;;;19.00;99.90;;;;;;4983442;28;20478;-72
2023/10/30 11:03:31;;;;;;;7.03;4.13;;;19.00;99.90;;;;;;4989983;28;20518;-72
2023/10/30 11:05:58;;;;;;;4.70;3.57;;;19.00;99.90;;;;;;4991236;28;20696;-72
2023/10/30 11:08:44;;;;;;;6.27;3.97;;;19.00;99.90;;;;;;4989720;28;20184;-72
2023/10/30 11:11:40;;;;;;;3.87;3.50;;;19.00;99.90;;;;;;4989467;28;20877;-72
2023/10/30 11:14:28;;;;;;;6.40;3.80;;;18.90;99.90;;;;;;5015315;28;20437;-72
2023/10/30 11:17:01;;;;;;;6.60;3.80;;;18.90;99.90;;;;;;5002140;28;20996;-72
2023/10/30 11:19:37;;;;;;;6.40;4.00;;;18.90;99.90;;;;;;5024898;28;21142;-72
2023/10/30 11:22:02;;;;;;;5.20;4.17;;;18.90;99.90;;;;;;4986053;28;20686;-72
2023/10/30 11:24:40;;;;;;;7.60;4.00;;;18.90;99.90;;;;;;4994466;28;20515;-72
2023/10/30 11:27:25;;;;;;;4.83;3.57;;;18.90;99.90;;;;;;4982741;28;20189;-72
2023/10/30 11:29:56;;;;;;;5.23;4.00;;;18.80;99.90;;;;;;4987130;28;20493;-72
2023/10/30 11:32:24;;;;;;;3.83;3.13;;;18.80;99.90;;;;;;4999509;28;20436;-72
2023/10/30 11:34:50;;;;;;;3.87;3.40;;;18.80;99.90;;;;;;4995702;28;20518;-72
2023/10/30 11:37:18;;;;;;;4.40;3.63;;;18.80;99.90;;;;;;4991459;28;20455;-72
2023/10/30 11:39:48;;;;;;;4.70;3.50;;;18.70;99.90;;;;;;4990546;28;20982;-72
2023/10/30 11:42:26;;;;;;;5.10;3.60;;;18.70;99.90;;;;;;4989155;28;20444;-72
2023/10/30 11:44:53;;;;;;;5.57;3.60;;;18.70;99.90;;;;;;5001692;28;20467;-72
2023/10/30 11:47:23;;;;;;;3.37;3.00;;;18.70;99.90;;;;;;4975216;28;20497;-71
2023/10/30 11:49:49;;;;;;;4.70;3.60;;;18.70;99.90;;;;;;4986990;28;20972;-72
2023/10/30 11:52:15;;;;;;;4.07;3.63;;;18.70;99.90;;;;;;4985098;28;20504;-72
2023/10/30 11:54:43;;;;;;;4.40;3.53;;;18.70;99.90;;;;;;4993030;28;20443;-72
2023/10/30 11:57:09;;;;;;;4.30;3.47;;;18.70;99.90;;;;;;4992985;28;20420;-72
2023/10/30 11:59:36;;;;;;;3.80;3.40;;;18.80;99.90;;;;;;4990567;28;20495;-73
2023/10/30 12:02:02;;;;;;;3.93;3.10;;;18.80;99.90;;;;;;4995533;28;20208;-72
2023/10/30 12:04:28;;;;;;;5.80;3.10;;;18.80;99.90;;;;;;4993458;28;20471;-72
2023/10/30 12:06:54;;;;;;;4.37;3.20;;;18.80;99.90;;;;;;4998359;28;20669;-72
2023/10/30 12:09:21;;;;;;;4.37;3.67;;;18.80;99.90;;;;;;5001101;28;21055;-73
2023/10/30 12:11:47;;;;;;;5.00;3.37;;;18.80;99.90;;;;;;4994861;28;20470;-72
2023/10/30 12:14:13;;;;;;;4.63;3.70;;;18.70;99.90;;;;;;5006491;28;20424;-72
2023/10/30 12:16:47;;;;;;;5.00;3.90;;;18.70;99.90;;;;;;4997803;28;20180;-72
2023/10/30 12:19:13;;;;;;;4.07;3.30;;;18.70;99.90;;;;;;4993053;28;20404;-73
2023/10/30 12:21:39;;;;;;;5.73;3.67;;;18.70;99.90;;;;;;4992131;28;20477;-73
2023/10/30 12:24:04;;;;;;;6.93;4.00;;;18.70;99.90;;;;;;5003969;28;20287;-73
2023/10/30 12:26:33;;;;;;;3.50;3.03;;;18.60;99.90;;;;;;4999732;28;20704;-72
2023/10/30 12:29:00;;;;;;;7.30;4.17;;;18.60;99.90;;;;;;5031575;28;20311;-72
2023/10/30 12:31:26;;;;;;;5.40;3.80;;;18.60;99.90;;;;;;5001984;28;20471;-74
2023/10/30 12:34:14;;;;;;;4.90;3.33;;;18.60;99.90;;;;;;5004694;28;20503;-73
2023/10/30 12:36:40;;;;;;;3.60;3.20;;;18.60;99.90;;;;;;4998998;28;20912;-73
2023/10/30 12:39:20;;;;;;;5.70;3.40;;;18.50;99.90;;;;;;4995876;28;20574;-73
2023/10/30 12:41:51;;;;;;;5.90;4.17;;;18.60;99.90;;;;;;4992542;28;20460;-71
2023/10/30 12:44:18;;;;;;;3.80;3.20;;;18.50;99.90;;;;;;4991684;28;20440;-73
2023/10/30 12:46:44;;;;;;;5.30;4.23;;;18.50;99.90;;;;;;4991617;28;20447;-72